sensor_id;sensor_type;location;lat;lon;timestamp;P1;durP1;ratioP1;P2;durP2;ratioP2
7193;SDS011;3638;48.820;9.244;2022-09-30T00:00:03;7.17;;;6.47;;
7193;SDS011;3638;48.820;9.244;2022-09-30T00:02:32;7.80;;;6.20;;
7193;SDS011;3638;48.820;9.244;2022-09-30T00:04:59;9.53;;;6.23;;
7193;SDS011;3638;48.820;9.244;2022-09-30T00:07:25;7.37;;;6.30;;
7193;SDS011;3638;48.820;9.244;2022-09-30T00:09:54;6.17;;;5.50;;
7193;SDS011;3638;48.820;9.244;2022-09-30T00:12:21;9.13;;;6.80;;
7193;SDS011;3638;48.820;9.244;2022-09-30T00:14:48;8.63;;;6.73;;
7193;SDS011;3638;48.820;9.244;2022-09-30T00:17:15;8.50;;;6.50;;
7193;SDS011;3638;48.820;9.244;2022-09-30T00:19:42;11.03;;;6.40;;
7193;SDS011;3638;48.820;9.244;2022-09-30T00:22:09;6.67;;;5.87;;
7193;SDS011;3638;48.820;9.244;2022-09-30T00:24:35;7.70;;;5.97;;
7193;SDS011;3638;48.820;9.244;2022-09-30T00:27:04;7.27;;;6.20;;
7193;SDS011;3638;48.820;9.244;2022-09-30T00:29:31;9.60;;;6.27;;
7193;SDS011;3638;48.820;9.244;2022-09-30T00:31:58;6.33;;;5.43;;
7193;SDS011;3638;48.820;9.244;2022-09-30T00:34:24;8.30;;;5.80;;
7193;SDS011;3638;48.820;9.244;2022-09-30T00:36:52;8.37;;;6.03;;
7193;SDS011;3638;48.820;9.244;2022-09-30T00:39:21;9.73;;;5.67;;
7193;SDS011;3638;48.820;9.244;2022-09-30T00:41:50;6.23;;;5.63;;
7193;SDS011;3638;48.820;9.244;2022-09-30T00:47:24;8.53;;;5.67;;
7193;SDS011;3638;48.820;9.244;2022-09-30T00:50:05;6.27;;;5.10;;
7193;SDS011;3638;48.820;9.244;2022-09-30T00:52:42;6.43;;;5.73;;
7193;SDS011;3638;48.820;9.244;2022-09-30T00:55:15;7.53;;;6.00;;
7193;SDS011;3638;48.820;9.244;2022-09-30T00:57:56;7.23;;;5.43;;
7193;SDS011;3638;48.820;9.244;2022-09-30T01:00:28;6.77;;;5.47;;
7193;SDS011;3638;48.820;9.244;2022-09-30T01:02:55;8.07;;;5.40;;
7193;SDS011;3638;48.820;9.244;2022-09-30T01:05:22;8.50;;;5.90;;
7193;SDS011;3638;48.820;9.244;2022-09-30T01:07:52;7.23;;;5.80;;
7193;SDS011;3638;48.820;9.244;2022-09-30T01:10:21;7.87;;;6.00;;
7193;SDS011;3638;48.820;9.244;2022-09-30T01:12:48;7.57;;;6.20;;
7193;SDS011;3638;48.820;9.244;2022-09-30T01:15:15;12.57;;;6.53;;
7193;SDS011;3638;48.820;9.244;2022-09-30T01:17:47;11.37;;;6.50;;
7193;SDS011;3638;48.820;9.244;2022-09-30T01:20:25;8.30;;;5.97;;
7193;SDS011;3638;48.820;9.244;2022-09-30T01:23:16;7.47;;;5.90;;
7193;SDS011;3638;48.820;9.244;2022-09-30T01:26:41;9.67;;;6.30;;
7193;SDS011;3638;48.820;9.244;2022-09-30T01:32:36;7.10;;;5.83;;
7193;SDS011;3638;48.820;9.244;2022-09-30T01:35:37;7.57;;;6.00;;
7193;SDS011;3638;48.820;9.244;2022-09-30T01:38:23;7.90;;;6.03;;
7193;SDS011;3638;48.820;9.244;2022-09-30T01:40:57;7.30;;;6.07;;
7193;SDS011;3638;48.820;9.244;2022-09-30T01:43:32;9.63;;;5.97;;
7193;SDS011;3638;48.820;9.244;2022-09-30T01:46:15;6.90;;;5.80;;
7193;SDS011;3638;48.820;9.244;2022-09-30T01:48:54;6.83;;;5.90;;
7193;SDS011;3638;48.820;9.244;2022-09-30T01:51:26;9.47;;;6.73;;
7193;SDS011;3638;48.820;9.244;2022-09-30T01:54:02;10.30;;;7.40;;
7193;SDS011;3638;48.820;9.244;2022-09-30T01:56:33;7.30;;;6.50;;
7193;SDS011;3638;48.820;9.244;2022-09-30T01:59:06;10.07;;;6.73;;
7193;SDS011;3638;48.820;9.244;2022-09-30T02:01:45;9.87;;;6.40;;
7193;SDS011;3638;48.820;9.244;2022-09-30T02:04:19;7.50;;;6.07;;
7193;SDS011;3638;48.820;9.244;2022-09-30T02:06:52;10.63;;;6.30;;
7193;SDS011;3638;48.820;9.244;2022-09-30T02:09:26;8.23;;;5.77;;
7193;SDS011;3638;48.820;9.244;2022-09-30T02:11:58;6.83;;;6.07;;
7193;SDS011;3638;48.820;9.244;2022-09-30T02:14:30;8.37;;;6.60;;
7193;SDS011;3638;48.820;9.244;2022-09-30T02:17:03;8.37;;;6.57;;
7193;SDS011;3638;48.820;9.244;2022-09-30T02:19:36;9.33;;;6.37;;
7193;SDS011;3638;48.820;9.244;2022-09-30T02:22:09;8.67;;;6.80;;
7193;SDS011;3638;48.820;9.244;2022-09-30T02:24:41;16.10;;;7.23;;
7193;SDS011;3638;48.820;9.244;2022-09-30T02:27:12;11.23;;;6.63;;
7193;SDS011;3638;48.820;9.244;2022-09-30T02:29:47;9.27;;;7.43;;
7193;SDS011;3638;48.820;9.244;2022-09-30T02:32:19;10.43;;;7.83;;
7193;SDS011;3638;48.820;9.244;2022-09-30T02:34:51;8.60;;;7.70;;
7193;SDS011;3638;48.820;9.244;2022-09-30T02:37:23;10.63;;;6.87;;
7193;SDS011;3638;48.820;9.244;2022-09-30T02:39:59;8.10;;;7.27;;
7193;SDS011;3638;48.820;9.244;2022-09-30T02:42:34;7.83;;;7.03;;
7193;SDS011;3638;48.820;9.244;2022-09-30T02:45:04;9.93;;;7.63;;
7193;SDS011;3638;48.820;9.244;2022-09-30T02:47:38;7.60;;;6.90;;
7193;SDS011;3638;48.820;9.244;2022-09-30T02:50:18;8.47;;;7.07;;
7193;SDS011;3638;48.820;9.244;2022-09-30T02:52:55;9.47;;;7.27;;
7193;SDS011;3638;48.820;9.244;2022-09-30T02:55:40;7.60;;;6.80;;
7193;SDS011;3638;48.820;9.244;2022-09-30T02:58:20;8.50;;;6.63;;
7193;SDS011;3638;48.820;9.244;2022-09-30T03:00:50;7.90;;;7.10;;
7193;SDS011;3638;48.820;9.244;2022-09-30T03:03:19;8.37;;;7.10;;
7193;SDS011;3638;48.820;9.244;2022-09-30T03:05:51;7.40;;;6.63;;
7193;SDS011;3638;48.820;9.244;2022-09-30T03:08:18;9.43;;;7.07;;
7193;SDS011;3638;48.820;9.244;2022-09-30T03:10:46;9.33;;;8.30;;
7193;SDS011;3638;48.820;9.244;2022-09-30T03:13:19;10.17;;;7.00;;
7193;SDS011;3638;48.820;9.244;2022-09-30T03:16:05;8.87;;;7.37;;
7193;SDS011;3638;48.820;9.244;2022-09-30T03:18:51;9.00;;;7.83;;
7193;SDS011;3638;48.820;9.244;2022-09-30T03:21:41;9.53;;;8.00;;
7193;SDS011;3638;48.820;9.244;2022-09-30T03:24:35;7.70;;;6.97;;
7193;SDS011;3638;48.820;9.244;2022-09-30T03:27:21;9.30;;;7.57;;
7193;SDS011;3638;48.820;9.244;2022-09-30T03:29:58;8.23;;;7.43;;
7193;SDS011;3638;48.820;9.244;2022-09-30T03:32:32;9.47;;;7.40;;
7193;SDS011;3638;48.820;9.244;2022-09-30T03:35:15;9.37;;;7.37;;
7193;SDS011;3638;48.820;9.244;2022-09-30T03:37:50;9.83;;;7.53;;
7193;SDS011;3638;48.820;9.244;2022-09-30T03:40:28;8.30;;;7.50;;
7193;SDS011;3638;48.820;9.244;2022-09-30T03:43:03;8.90;;;7.40;;
7193;SDS011;3638;48.820;9.244;2022-09-30T03:45:35;11.07;;;7.83;;
7193;SDS011;3638;48.820;9.244;2022-09-30T03:48:10;8.37;;;7.17;;
7193;SDS011;3638;48.820;9.244;2022-09-30T03:50:39;8.47;;;7.17;;
7193;SDS011;3638;48.820;9.244;2022-09-30T03:53:09;8.60;;;7.10;;
7193;SDS011;3638;48.820;9.244;2022-09-30T03:55:47;7.73;;;6.90;;
7193;SDS011;3638;48.820;9.244;2022-09-30T03:58:17;8.53;;;7.37;;
7193;SDS011;3638;48.820;9.244;2022-09-30T04:00:48;10.27;;;7.43;;
7193;SDS011;3638;48.820;9.244;2022-09-30T04:03:16;8.30;;;7.47;;
7193;SDS011;3638;48.820;9.244;2022-09-30T04:05:45;7.70;;;6.60;;
7193;SDS011;3638;48.820;9.244;2022-09-30T04:08:14;9.43;;;7.13;;
7193;SDS011;3638;48.820;9.244;2022-09-30T04:10:41;8.77;;;7.23;;
7193;SDS011;3638;48.820;9.244;2022-09-30T04:13:09;8.93;;;7.30;;
7193;SDS011;3638;48.820;9.244;2022-09-30T04:15:37;8.33;;;7.20;;
7193;SDS011;3638;48.820;9.244;2022-09-30T04:18:04;8.47;;;7.00;;
7193;SDS011;3638;48.820;9.244;2022-09-30T04:20:32;9.27;;;7.53;;
7193;SDS011;3638;48.820;9.244;2022-09-30T04:22:59;8.40;;;7.17;;
7193;SDS011;3638;48.820;9.244;2022-09-30T04:25:28;8.20;;;7.40;;
7193;SDS011;3638;48.820;9.244;2022-09-30T04:27:55;8.30;;;7.37;;
7193;SDS011;3638;48.820;9.244;2022-09-30T04:30:22;9.27;;;7.53;;
7193;SDS011;3638;48.820;9.244;2022-09-30T04:32:49;7.87;;;7.07;;
7193;SDS011;3638;48.820;9.244;2022-09-30T04:35:16;7.90;;;7.10;;
7193;SDS011;3638;48.820;9.244;2022-09-30T04:37:43;9.30;;;7.90;;
7193;SDS011;3638;48.820;9.244;2022-09-30T04:40:11;10.10;;;7.10;;
7193;SDS011;3638;48.820;9.244;2022-09-30T04:42:41;8.90;;;7.47;;
7193;SDS011;3638;48.820;9.244;2022-09-30T04:45:09;10.47;;;8.07;;
7193;SDS011;3638;48.820;9.244;2022-09-30T04:47:36;8.50;;;7.70;;
7193;SDS011;3638;48.820;9.244;2022-09-30T04:50:04;9.50;;;8.20;;
7193;SDS011;3638;48.820;9.244;2022-09-30T04:52:32;10.73;;;8.10;;
7193;SDS011;3638;48.820;9.244;2022-09-30T04:54:59;11.70;;;8.20;;
7193;SDS011;3638;48.820;9.244;2022-09-30T04:57:26;10.50;;;8.50;;
7193;SDS011;3638;48.820;9.244;2022-09-30T04:59:54;9.13;;;8.20;;
7193;SDS011;3638;48.820;9.244;2022-09-30T05:02:21;9.50;;;8.13;;
7193;SDS011;3638;48.820;9.244;2022-09-30T05:04:47;9.13;;;8.10;;
7193;SDS011;3638;48.820;9.244;2022-09-30T05:07:14;9.07;;;7.63;;
7193;SDS011;3638;48.820;9.244;2022-09-30T05:09:41;8.93;;;7.80;;
7193;SDS011;3638;48.820;9.244;2022-09-30T05:12:08;9.33;;;8.10;;
7193;SDS011;3638;48.820;9.244;2022-09-30T05:14:35;10.13;;;7.83;;
7193;SDS011;3638;48.820;9.244;2022-09-30T05:17:03;11.53;;;8.10;;
7193;SDS011;3638;48.820;9.244;2022-09-30T05:19:30;11.00;;;8.87;;
7193;SDS011;3638;48.820;9.244;2022-09-30T05:21:57;11.13;;;8.60;;
7193;SDS011;3638;48.820;9.244;2022-09-30T05:24:24;11.83;;;8.87;;
7193;SDS011;3638;48.820;9.244;2022-09-30T05:26:51;13.77;;;9.30;;
7193;SDS011;3638;48.820;9.244;2022-09-30T05:29:18;11.00;;;8.77;;
7193;SDS011;3638;48.820;9.244;2022-09-30T05:31:44;12.37;;;9.23;;
7193;SDS011;3638;48.820;9.244;2022-09-30T05:34:13;12.37;;;9.60;;
7193;SDS011;3638;48.820;9.244;2022-09-30T05:36:40;11.17;;;9.47;;
7193;SDS011;3638;48.820;9.244;2022-09-30T05:39:09;17.53;;;9.80;;
7193;SDS011;3638;48.820;9.244;2022-09-30T05:41:36;10.47;;;9.37;;
7193;SDS011;3638;48.820;9.244;2022-09-30T05:44:03;10.40;;;9.23;;
7193;SDS011;3638;48.820;9.244;2022-09-30T05:46:32;12.23;;;9.73;;
7193;SDS011;3638;48.820;9.244;2022-09-30T05:49:00;12.03;;;10.57;;
7193;SDS011;3638;48.820;9.244;2022-09-30T05:51:28;11.83;;;9.60;;
7193;SDS011;3638;48.820;9.244;2022-09-30T05:53:55;13.13;;;9.70;;
7193;SDS011;3638;48.820;9.244;2022-09-30T05:56:22;13.77;;;9.70;;
7193;SDS011;3638;48.820;9.244;2022-09-30T05:58:49;11.40;;;8.77;;
7193;SDS011;3638;48.820;9.244;2022-09-30T06:01:15;10.90;;;8.67;;
7193;SDS011;3638;48.820;9.244;2022-09-30T06:03:43;9.37;;;8.00;;
7193;SDS011;3638;48.820;9.244;2022-09-30T06:06:12;13.30;;;9.23;;
7193;SDS011;3638;48.820;9.244;2022-09-30T06:08:41;11.63;;;8.47;;
7193;SDS011;3638;48.820;9.244;2022-09-30T06:11:09;11.87;;;9.33;;
7193;SDS011;3638;48.820;9.244;2022-09-30T06:13:38;11.73;;;8.50;;
7193;SDS011;3638;48.820;9.244;2022-09-30T06:16:07;18.37;;;12.10;;
7193;SDS011;3638;48.820;9.244;2022-09-30T06:18:35;13.80;;;12.30;;
7193;SDS011;3638;48.820;9.244;2022-09-30T06:21:05;13.57;;;11.20;;
7193;SDS011;3638;48.820;9.244;2022-09-30T06:23:35;16.50;;;12.77;;
7193;SDS011;3638;48.820;9.244;2022-09-30T06:26:04;16.23;;;12.47;;
7193;SDS011;3638;48.820;9.244;2022-09-30T06:28:33;15.33;;;12.60;;
7193;SDS011;3638;48.820;9.244;2022-09-30T06:31:00;15.73;;;12.67;;
7193;SDS011;3638;48.820;9.244;2022-09-30T06:33:28;17.17;;;13.80;;
7193;SDS011;3638;48.820;9.244;2022-09-30T06:35:55;21.67;;;13.60;;
7193;SDS011;3638;48.820;9.244;2022-09-30T06:38:22;18.10;;;14.23;;
7193;SDS011;3638;48.820;9.244;2022-09-30T06:40:51;18.07;;;13.73;;
7193;SDS011;3638;48.820;9.244;2022-09-30T06:43:19;44.23;;;15.80;;
7193;SDS011;3638;48.820;9.244;2022-09-30T06:45:46;16.27;;;13.73;;
7193;SDS011;3638;48.820;9.244;2022-09-30T06:48:15;17.47;;;13.53;;
7193;SDS011;3638;48.820;9.244;2022-09-30T06:50:43;13.87;;;11.87;;
7193;SDS011;3638;48.820;9.244;2022-09-30T06:53:11;17.40;;;13.23;;
7193;SDS011;3638;48.820;9.244;2022-09-30T06:55:38;13.97;;;12.07;;
7193;SDS011;3638;48.820;9.244;2022-09-30T06:58:06;14.00;;;11.53;;
7193;SDS011;3638;48.820;9.244;2022-09-30T07:00:39;13.90;;;11.50;;
7193;SDS011;3638;48.820;9.244;2022-09-30T07:03:07;11.73;;;10.10;;
7193;SDS011;3638;48.820;9.244;2022-09-30T07:05:53;12.80;;;10.97;;
7193;SDS011;3638;48.820;9.244;2022-09-30T07:08:24;13.43;;;9.80;;
7193;SDS011;3638;48.820;9.244;2022-09-30T07:10:55;12.97;;;11.00;;
7193;SDS011;3638;48.820;9.244;2022-09-30T07:13:22;13.80;;;10.27;;
7193;SDS011;3638;48.820;9.244;2022-09-30T07:15:51;11.20;;;10.00;;
7193;SDS011;3638;48.820;9.244;2022-09-30T07:18:19;12.03;;;9.77;;
7193;SDS011;3638;48.820;9.244;2022-09-30T07:20:49;10.03;;;9.03;;
7193;SDS011;3638;48.820;9.244;2022-09-30T07:23:17;11.43;;;9.50;;
7193;SDS011;3638;48.820;9.244;2022-09-30T07:25:48;12.67;;;10.23;;
7193;SDS011;3638;48.820;9.244;2022-09-30T07:28:20;13.93;;;10.07;;
7193;SDS011;3638;48.820;9.244;2022-09-30T07:30:59;10.67;;;9.26;;
7193;SDS011;3638;48.820;9.244;2022-09-30T07:33:28;13.37;;;10.63;;
7193;SDS011;3638;48.820;9.244;2022-09-30T07:35:57;12.97;;;10.50;;
7193;SDS011;3638;48.820;9.244;2022-09-30T07:38:28;14.77;;;12.10;;
7193;SDS011;3638;48.820;9.244;2022-09-30T07:40:57;14.70;;;12.07;;
7193;SDS011;3638;48.820;9.244;2022-09-30T07:43:27;15.93;;;12.90;;
7193;SDS011;3638;48.820;9.244;2022-09-30T07:46:02;15.20;;;13.17;;
7193;SDS011;3638;48.820;9.244;2022-09-30T07:48:31;17.43;;;13.93;;
7193;SDS011;3638;48.820;9.244;2022-09-30T07:51:08;15.93;;;13.30;;
7193;SDS011;3638;48.820;9.244;2022-09-30T07:53:39;18.97;;;15.13;;
7193;SDS011;3638;48.820;9.244;2022-09-30T07:56:08;18.00;;;15.10;;
7193;SDS011;3638;48.820;9.244;2022-09-30T07:58:36;16.13;;;14.23;;
7193;SDS011;3638;48.820;9.244;2022-09-30T08:01:05;18.53;;;15.17;;
7193;SDS011;3638;48.820;9.244;2022-09-30T08:03:32;16.37;;;14.53;;
7193;SDS011;3638;48.820;9.244;2022-09-30T08:06:03;19.97;;;15.40;;
7193;SDS011;3638;48.820;9.244;2022-09-30T08:08:32;15.50;;;13.57;;
7193;SDS011;3638;48.820;9.244;2022-09-30T08:10:59;14.13;;;12.73;;
7193;SDS011;3638;48.820;9.244;2022-09-30T08:13:26;15.53;;;13.23;;
7193;SDS011;3638;48.820;9.244;2022-09-30T08:15:53;16.30;;;12.93;;
7193;SDS011;3638;48.820;9.244;2022-09-30T08:18:22;17.67;;;13.80;;
7193;SDS011;3638;48.820;9.244;2022-09-30T08:20:49;15.63;;;13.17;;
7193;SDS011;3638;48.820;9.244;2022-09-30T08:23:16;17.63;;;14.00;;
7193;SDS011;3638;48.820;9.244;2022-09-30T08:25:43;15.70;;;13.47;;
7193;SDS011;3638;48.820;9.244;2022-09-30T08:28:10;15.93;;;13.37;;
7193;SDS011;3638;48.820;9.244;2022-09-30T08:30:38;16.33;;;14.23;;
7193;SDS011;3638;48.820;9.244;2022-09-30T08:33:06;16.97;;;13.77;;
7193;SDS011;3638;48.820;9.244;2022-09-30T08:35:34;14.73;;;12.87;;
7193;SDS011;3638;48.820;9.244;2022-09-30T08:38:01;17.23;;;14.37;;
7193;SDS011;3638;48.820;9.244;2022-09-30T08:40:29;17.20;;;14.70;;
7193;SDS011;3638;48.820;9.244;2022-09-30T08:43:12;16.83;;;14.63;;
7193;SDS011;3638;48.820;9.244;2022-09-30T08:45:53;19.47;;;14.67;;
7193;SDS011;3638;48.820;9.244;2022-09-30T08:48:36;19.37;;;14.10;;
7193;SDS011;3638;48.820;9.244;2022-09-30T08:51:20;13.83;;;12.43;;
7193;SDS011;3638;48.820;9.244;2022-09-30T08:53:56;14.93;;;12.97;;
7193;SDS011;3638;48.820;9.244;2022-09-30T08:56:27;14.67;;;12.67;;
7193;SDS011;3638;48.820;9.244;2022-09-30T08:58:58;14.50;;;12.00;;
7193;SDS011;3638;48.820;9.244;2022-09-30T09:01:31;14.63;;;12.40;;
7193;SDS011;3638;48.820;9.244;2022-09-30T09:04:01;13.37;;;11.80;;
7193;SDS011;3638;48.820;9.244;2022-09-30T09:06:34;14.03;;;11.67;;
7193;SDS011;3638;48.820;9.244;2022-09-30T09:09:17;13.53;;;11.60;;
7193;SDS011;3638;48.820;9.244;2022-09-30T09:12:01;15.13;;;12.37;;
7193;SDS011;3638;48.820;9.244;2022-09-30T09:14:41;14.33;;;12.73;;
7193;SDS011;3638;48.820;9.244;2022-09-30T09:17:23;14.40;;;12.83;;
7193;SDS011;3638;48.820;9.244;2022-09-30T09:20:02;16.73;;;14.83;;
7193;SDS011;3638;48.820;9.244;2022-09-30T09:22:39;17.80;;;15.23;;
7193;SDS011;3638;48.820;9.244;2022-09-30T09:25:10;16.50;;;14.77;;
7193;SDS011;3638;48.820;9.244;2022-09-30T09:27:42;18.63;;;14.67;;
7193;SDS011;3638;48.820;9.244;2022-09-30T09:30:18;16.13;;;14.43;;
7193;SDS011;3638;48.820;9.244;2022-09-30T09:32:48;14.00;;;12.60;;
7193;SDS011;3638;48.820;9.244;2022-09-30T09:35:23;18.27;;;14.27;;
7193;SDS011;3638;48.820;9.244;2022-09-30T09:38:04;14.37;;;12.17;;
7193;SDS011;3638;48.820;9.244;2022-09-30T09:40:55;15.67;;;12.03;;
7193;SDS011;3638;48.820;9.244;2022-09-30T09:43:36;13.37;;;11.43;;
7193;SDS011;3638;48.820;9.244;2022-09-30T09:46:18;14.33;;;10.90;;
7193;SDS011;3638;48.820;9.244;2022-09-30T09:48:55;13.60;;;11.27;;
7193;SDS011;3638;48.820;9.244;2022-09-30T09:51:56;10.97;;;9.70;;
7193;SDS011;3638;48.820;9.244;2022-09-30T09:55:06;11.03;;;9.00;;
7193;SDS011;3638;48.820;9.244;2022-09-30T09:57:36;10.30;;;9.00;;
7193;SDS011;3638;48.820;9.244;2022-09-30T10:00:05;10.90;;;9.23;;
7193;SDS011;3638;48.820;9.244;2022-09-30T10:03:01;11.87;;;8.53;;
7193;SDS011;3638;48.820;9.244;2022-09-30T10:05:33;10.43;;;8.37;;
7193;SDS011;3638;48.820;9.244;2022-09-30T10:08:09;9.53;;;8.13;;
7193;SDS011;3638;48.820;9.244;2022-09-30T10:10:43;9.17;;;7.00;;
7193;SDS011;3638;48.820;9.244;2022-09-30T10:13:15;7.30;;;6.57;;
7193;SDS011;3638;48.820;9.244;2022-09-30T10:15:44;7.10;;;6.23;;
7193;SDS011;3638;48.820;9.244;2022-09-30T10:18:15;7.83;;;5.50;;
7193;SDS011;3638;48.820;9.244;2022-09-30T10:20:51;6.53;;;5.20;;
7193;SDS011;3638;48.820;9.244;2022-09-30T10:23:24;5.00;;;4.10;;
7193;SDS011;3638;48.820;9.244;2022-09-30T10:25:57;4.57;;;4.17;;
7193;SDS011;3638;48.820;9.244;2022-09-30T10:28:29;5.63;;;4.83;;
7193;SDS011;3638;48.820;9.244;2022-09-30T10:31:03;6.80;;;5.30;;
7193;SDS011;3638;48.820;9.244;2022-09-30T10:33:33;8.13;;;5.93;;
7193;SDS011;3638;48.820;9.244;2022-09-30T10:36:08;6.43;;;4.80;;
7193;SDS011;3638;48.820;9.244;2022-09-30T10:38:45;6.13;;;4.80;;
7193;SDS011;3638;48.820;9.244;2022-09-30T10:41:25;4.37;;;3.97;;
7193;SDS011;3638;48.820;9.244;2022-09-30T10:43:54;4.33;;;3.93;;
7193;SDS011;3638;48.820;9.244;2022-09-30T10:46:25;5.17;;;4.67;;
7193;SDS011;3638;48.820;9.244;2022-09-30T10:48:55;5.10;;;4.17;;
7193;SDS011;3638;48.820;9.244;2022-09-30T10:51:25;4.70;;;3.50;;
7193;SDS011;3638;48.820;9.244;2022-09-30T10:53:55;4.23;;;3.67;;
7193;SDS011;3638;48.820;9.244;2022-09-30T10:59:22;4.03;;;3.63;;
7193;SDS011;3638;48.820;9.244;2022-09-30T11:01:59;4.93;;;3.63;;
7193;SDS011;3638;48.820;9.244;2022-09-30T11:04:42;5.03;;;4.53;;
7193;SDS011;3638;48.820;9.244;2022-09-30T11:07:15;5.83;;;3.93;;
7193;SDS011;3638;48.820;9.244;2022-09-30T11:09:53;3.70;;;3.40;;
7193;SDS011;3638;48.820;9.244;2022-09-30T11:12:29;8.87;;;5.83;;
7193;SDS011;3638;48.820;9.244;2022-09-30T11:15:07;6.70;;;6.00;;
7193;SDS011;3638;48.820;9.244;2022-09-30T11:17:43;5.97;;;5.20;;
7193;SDS011;3638;48.820;9.244;2022-09-30T11:20:18;6.17;;;5.50;;
7193;SDS011;3638;48.820;9.244;2022-09-30T11:22:51;6.47;;;4.90;;
7193;SDS011;3638;48.820;9.244;2022-09-30T11:25:26;5.57;;;4.53;;
7193;SDS011;3638;48.820;9.244;2022-09-30T11:28:10;4.77;;;4.10;;
7193;SDS011;3638;48.820;9.244;2022-09-30T11:30:56;3.53;;;3.00;;
7193;SDS011;3638;48.820;9.244;2022-09-30T11:33:40;3.80;;;3.20;;
7193;SDS011;3638;48.820;9.244;2022-09-30T11:36:21;3.63;;;3.30;;
7193;SDS011;3638;48.820;9.244;2022-09-30T11:39:03;5.53;;;4.23;;
7193;SDS011;3638;48.820;9.244;2022-09-30T11:41:49;5.40;;;4.87;;
7193;SDS011;3638;48.820;9.244;2022-09-30T11:44:26;6.60;;;4.60;;
7193;SDS011;3638;48.820;9.244;2022-09-30T11:47:01;3.87;;;3.47;;
7193;SDS011;3638;48.820;9.244;2022-09-30T11:52:52;6.07;;;3.10;;
7193;SDS011;3638;48.820;9.244;2022-09-30T11:55:32;5.17;;;3.33;;
7193;SDS011;3638;48.820;9.244;2022-09-30T11:58:16;5.60;;;2.77;;
7193;SDS011;3638;48.820;9.244;2022-09-30T12:00:50;3.90;;;2.60;;
7193;SDS011;3638;48.820;9.244;2022-09-30T12:03:24;3.23;;;2.40;;
7193;SDS011;3638;48.820;9.244;2022-09-30T12:06:00;3.07;;;2.70;;
7193;SDS011;3638;48.820;9.244;2022-09-30T12:08:36;4.00;;;2.60;;
7193;SDS011;3638;48.820;9.244;2022-09-30T12:11:14;4.77;;;2.80;;
7193;SDS011;3638;48.820;9.244;2022-09-30T12:13:47;4.07;;;3.20;;
7193;SDS011;3638;48.820;9.244;2022-09-30T12:16:20;4.23;;;3.10;;
7193;SDS011;3638;48.820;9.244;2022-09-30T12:18:52;3.30;;;2.67;;
7193;SDS011;3638;48.820;9.244;2022-09-30T12:21:25;2.60;;;2.40;;
7193;SDS011;3638;48.820;9.244;2022-09-30T12:23:58;3.17;;;2.80;;
7193;SDS011;3638;48.820;9.244;2022-09-30T12:26:31;6.27;;;2.93;;
7193;SDS011;3638;48.820;9.244;2022-09-30T12:28:59;2.60;;;2.40;;
7193;SDS011;3638;48.820;9.244;2022-09-30T12:31:54;4.13;;;2.43;;
7193;SDS011;3638;48.820;9.244;2022-09-30T12:34:41;2.80;;;2.20;;
7193;SDS011;3638;48.820;9.244;2022-09-30T12:37:38;3.97;;;2.43;;
7193;SDS011;3638;48.820;9.244;2022-09-30T12:40:32;5.50;;;3.00;;
7193;SDS011;3638;48.820;9.244;2022-09-30T12:43:16;3.10;;;2.73;;
7193;SDS011;3638;48.820;9.244;2022-09-30T12:46:13;3.50;;;2.60;;
7193;SDS011;3638;48.820;9.244;2022-09-30T12:48:47;2.90;;;2.43;;
7193;SDS011;3638;48.820;9.244;2022-09-30T12:51:20;5.37;;;2.83;;
7193;SDS011;3638;48.820;9.244;2022-09-30T12:53:51;2.80;;;2.50;;
7193;SDS011;3638;48.820;9.244;2022-09-30T12:56:28;2.92;;;2.58;;
7193;SDS011;3638;48.820;9.244;2022-09-30T12:58:58;3.10;;;2.80;;
7193;SDS011;3638;48.820;9.244;2022-09-30T13:01:26;3.33;;;2.33;;
7193;SDS011;3638;48.820;9.244;2022-09-30T13:07:05;2.60;;;2.00;;
7193;SDS011;3638;48.820;9.244;2022-09-30T13:12:54;3.97;;;2.30;;
7193;SDS011;3638;48.820;9.244;2022-09-30T13:15:42;3.67;;;2.80;;
7193;SDS011;3638;48.820;9.244;2022-09-30T13:21:27;2.87;;;2.37;;
7193;SDS011;3638;48.820;9.244;2022-09-30T13:23:55;2.47;;;2.28;;
7193;SDS011;3638;48.820;9.244;2022-09-30T13:26:34;3.40;;;2.40;;
7193;SDS011;3638;48.820;9.244;2022-09-30T13:29:26;3.13;;;2.28;;
7193;SDS011;3638;48.820;9.244;2022-09-30T13:32:06;2.70;;;2.23;;
7193;SDS011;3638;48.820;9.244;2022-09-30T13:34:54;2.40;;;2.20;;
7193;SDS011;3638;48.820;9.244;2022-09-30T13:40:15;3.83;;;2.50;;
7193;SDS011;3638;48.820;9.244;2022-09-30T13:42:50;2.37;;;2.07;;
7193;SDS011;3638;48.820;9.244;2022-09-30T13:45:22;3.17;;;2.30;;
7193;SDS011;3638;48.820;9.244;2022-09-30T13:48:08;3.30;;;2.43;;
7193;SDS011;3638;48.820;9.244;2022-09-30T13:50:43;2.70;;;2.50;;
7193;SDS011;3638;48.820;9.244;2022-09-30T13:53:16;4.05;;;2.60;;
7193;SDS011;3638;48.820;9.244;2022-09-30T13:55:50;2.95;;;2.40;;
7193;SDS011;3638;48.820;9.244;2022-09-30T13:58:26;5.20;;;2.25;;
7193;SDS011;3638;48.820;9.244;2022-09-30T14:01:17;5.05;;;3.10;;
7193;SDS011;3638;48.820;9.244;2022-09-30T14:04:06;2.30;;;2.10;;
7193;SDS011;3638;48.820;9.244;2022-09-30T14:07:07;3.85;;;2.25;;
7193;SDS011;3638;48.820;9.244;2022-09-30T14:09:46;1.98;;;1.85;;
7193;SDS011;3638;48.820;9.244;2022-09-30T14:12:35;4.75;;;2.65;;
7193;SDS011;3638;48.820;9.244;2022-09-30T14:15:20;4.60;;;2.80;;
7193;SDS011;3638;48.820;9.244;2022-09-30T14:18:17;3.70;;;2.40;;
7193;SDS011;3638;48.820;9.244;2022-09-30T14:21:21;4.43;;;2.28;;
7193;SDS011;3638;48.820;9.244;2022-09-30T14:24:02;2.50;;;2.22;;
7193;SDS011;3638;48.820;9.244;2022-09-30T14:26:41;2.53;;;2.20;;
7193;SDS011;3638;48.820;9.244;2022-09-30T14:29:26;2.50;;;2.30;;
7193;SDS011;3638;48.820;9.244;2022-09-30T14:32:08;2.83;;;2.30;;
7193;SDS011;3638;48.820;9.244;2022-09-30T14:34:37;3.47;;;2.72;;
7193;SDS011;3638;48.820;9.244;2022-09-30T14:37:06;3.47;;;2.30;;
7193;SDS011;3638;48.820;9.244;2022-09-30T14:39:44;2.97;;;2.17;;
7193;SDS011;3638;48.820;9.244;2022-09-30T14:42:16;2.95;;;2.10;;
7193;SDS011;3638;48.820;9.244;2022-09-30T14:44:50;2.50;;;2.30;;
7193;SDS011;3638;48.820;9.244;2022-09-30T14:47:19;4.27;;;1.97;;
7193;SDS011;3638;48.820;9.244;2022-09-30T14:49:47;7.82;;;2.65;;
7193;SDS011;3638;48.820;9.244;2022-09-30T14:55:18;3.33;;;2.20;;
7193;SDS011;3638;48.820;9.244;2022-09-30T14:57:56;2.75;;;2.20;;
7193;SDS011;3638;48.820;9.244;2022-09-30T15:00:48;2.97;;;2.33;;
7193;SDS011;3638;48.820;9.244;2022-09-30T15:03:24;4.18;;;2.65;;
7193;SDS011;3638;48.820;9.244;2022-09-30T15:05:52;3.95;;;2.20;;
7193;SDS011;3638;48.820;9.244;2022-09-30T15:08:20;2.88;;;2.30;;
7193;SDS011;3638;48.820;9.244;2022-09-30T15:10:48;2.33;;;2.10;;
7193;SDS011;3638;48.820;9.244;2022-09-30T15:13:18;3.42;;;2.45;;
7193;SDS011;3638;48.820;9.244;2022-09-30T15:15:47;2.72;;;2.28;;
7193;SDS011;3638;48.820;9.244;2022-09-30T15:18:25;3.75;;;2.65;;
7193;SDS011;3638;48.820;9.244;2022-09-30T15:20:59;6.03;;;2.80;;
7193;SDS011;3638;48.820;9.244;2022-09-30T15:23:34;5.03;;;2.90;;
7193;SDS011;3638;48.820;9.244;2022-09-30T15:26:04;3.50;;;2.50;;
7193;SDS011;3638;48.820;9.244;2022-09-30T15:28:33;3.60;;;2.70;;
7193;SDS011;3638;48.820;9.244;2022-09-30T15:31:00;6.60;;;3.10;;
7193;SDS011;3638;48.820;9.244;2022-09-30T15:33:29;4.45;;;2.40;;
7193;SDS011;3638;48.820;9.244;2022-09-30T15:36:00;2.93;;;2.57;;
7193;SDS011;3638;48.820;9.244;2022-09-30T15:38:31;4.23;;;2.50;;
7193;SDS011;3638;48.820;9.244;2022-09-30T15:41:02;2.78;;;2.20;;
7193;SDS011;3638;48.820;9.244;2022-09-30T15:43:34;2.50;;;2.23;;
7193;SDS011;3638;48.820;9.244;2022-09-30T15:46:22;2.47;;;2.27;;
7193;SDS011;3638;48.820;9.244;2022-09-30T15:48:52;4.07;;;2.30;;
7193;SDS011;3638;48.820;9.244;2022-09-30T15:51:29;4.53;;;2.50;;
7193;SDS011;3638;48.820;9.244;2022-09-30T15:53:59;3.67;;;2.60;;
7193;SDS011;3638;48.820;9.244;2022-09-30T15:56:50;2.87;;;2.30;;
7193;SDS011;3638;48.820;9.244;2022-09-30T15:59:17;2.70;;;2.30;;
7193;SDS011;3638;48.820;9.244;2022-09-30T16:01:44;2.77;;;2.33;;
7193;SDS011;3638;48.820;9.244;2022-09-30T16:04:20;5.10;;;2.20;;
7193;SDS011;3638;48.820;9.244;2022-09-30T16:06:50;2.90;;;2.17;;
7193;SDS011;3638;48.820;9.244;2022-09-30T16:09:22;2.43;;;2.00;;
7193;SDS011;3638;48.820;9.244;2022-09-30T16:12:00;2.40;;;2.03;;
7193;SDS011;3638;48.820;9.244;2022-09-30T16:14:33;4.00;;;2.30;;